Time;durP1;ratioP1;P1;durP2;ratioP2;P2;SDS_P1;SDS_P2;PMS_P1;PMS_P2;Temp;Humidity;BMP_temperature;BMP_pressure;BME280_temperature;BME280_humidity;BME280_pressure;Samples;Min_cycle;Max_cycle;Signal;HPM_P1;HPM_P2
2022/06/24 00:01:28;;;;;;;0.00;0.00;;;;;;;;;;5015263;28;20038;-68
2022/06/24 00:03:56;;;;;;;0.00;0.00;;;;;;;;;;5009355;28;20046;-68
2022/06/24 00:06:29;;;;;;;0.40;0.30;;;;;;;;;;5010275;28;20721;-68
2022/06/24 00:09:00;;;;;;;0.00;0.00;;;;;;;;;;5010935;28;20121;-68
2022/06/24 00:11:30;;;;;;;0.00;0.00;;;;;;;;;;5011742;28;20054;-69
2022/06/24 00:14:07;;;;;;;0.00;0.00;;;;;;;;;;5008981;28;20080;-69
2022/06/24 00:16:50;;;;;;;0.00;0.00;;;;;;;;;;4999510;28;20092;-69
2022/06/24 00:19:18;;;;;;;0.00;0.00;;;;;;;;;;5011739;28;20413;-68
2022/06/24 00:21:57;;;;;;;0.00;0.00;;;;;;;;;;5008378;28;20069;-69
2022/06/24 00:24:27;;;;;;;0.05;0.05;;;;;;;;;;5013156;28;20042;-69
2022/06/24 00:26:55;;;;;;;0.00;0.00;;;;;;;;;;5008913;28;20132;-69
2022/06/24 00:29:27;;;;;;;0.05;0.05;;;;;;;;;;5011446;28;20069;-69
2022/06/24 00:32:02;;;;;;;0.00;0.00;;;;;;;;;;5007206;28;20117;-69
2022/06/24 00:34:31;;;;;;;0.00;0.00;;;;;;;;;;5004073;28;20133;-69
2022/06/24 00:36:59;;;;;;;0.00;0.00;;;;;;;;;;5011170;28;20092;-69
2022/06/24 00:39:35;;;;;;;0.10;0.10;;;;;;;;;;5010826;28;20124;-69
2022/06/24 00:42:05;;;;;;;0.05;0.05;;;;;;;;;;5011580;28;20081;-69
2022/06/24 00:44:42;;;;;;;0.00;0.00;;;;;;;;;;5009104;28;20112;-68
2022/06/24 00:47:13;;;;;;;1.75;0.38;;;;;;;;;;5007304;28;20038;-69
2022/06/24 00:49:41;;;;;;;0.00;0.00;;;;;;;;;;5008769;28;20561;-69
2022/06/24 00:52:10;;;;;;;0.10;0.10;;;;;;;;;;5007513;28;20129;-69
2022/06/24 00:54:43;;;;;;;0.00;0.00;;;;;;;;;;5009602;28;20089;-69
2022/06/24 00:57:12;;;;;;;0.00;0.00;;;;;;;;;;5010772;28;20082;-69
2022/06/24 00:59:42;;;;;;;0.00;0.00;;;;;;;;;;5009538;28;20444;-69
2022/06/24 01:02:14;;;;;;;0.00;0.00;;;;;;;;;;5009526;28;20053;-69
2022/06/24 01:04:43;;;;;;;0.00;0.00;;;;;;;;;;5009100;28;20096;-68
2022/06/24 01:07:11;;;;;;;0.00;0.00;;;;;;;;;;5010365;28;20481;-68
2022/06/24 01:09:42;;;;;;;0.00;0.00;;;;;;;;;;5007882;28;20132;-68
2022/06/24 01:12:11;;;;;;;0.00;0.00;;;;;;;;;;5007746;28;20800;-68
2022/06/24 01:14:40;;;;;;;0.00;0.00;;;;;;;;;;5008856;28;20453;-68
2022/06/24 01:17:12;;;;;;;0.10;0.10;;;;;;;;;;5006356;28;20042;-68
2022/06/24 01:19:40;;;;;;;0.00;0.00;;;;;;;;;;5011502;28;20489;-68
2022/06/24 01:22:11;;;;;;;3.70;0.80;;;;;;;;;;5005473;28;20137;-70
2022/06/24 01:24:39;;;;;;;0.00;0.00;;;;;;;;;;5007219;28;20089;-68
2022/06/24 01:27:08;;;;;;;0.00;0.00;;;;;;;;;;5007618;28;20145;-68
2022/06/24 01:29:36;;;;;;;0.00;0.00;;;;;;;;;;5010663;28;20137;-68
2022/06/24 01:32:05;;;;;;;0.00;0.00;;;;;;;;;;5005445;28;20085;-68
2022/06/24 01:34:34;;;;;;;0.13;0.13;;;;;;;;;;5011056;28;20084;-68
2022/06/24 01:37:02;;;;;;;0.00;0.00;;;;;;;;;;5017005;28;20073;-68
2022/06/24 01:39:32;;;;;;;0.20;0.20;;;;;;;;;;5013765;28;20120;-68
2022/06/24 01:42:00;;;;;;;0.10;0.10;;;;;;;;;;5009022;28;20050;-68
2022/06/24 01:44:29;;;;;;;0.00;0.00;;;;;;;;;;5015099;28;20091;-68
2022/06/24 01:46:57;;;;;;;0.00;0.00;;;;;;;;;;5009699;28;20092;-68
2022/06/24 01:49:25;;;;;;;0.10;0.10;;;;;;;;;;5014668;28;20064;-68
2022/06/24 01:51:55;;;;;;;0.00;0.00;;;;;;;;;;5012149;28;20188;-68
2022/06/24 01:54:24;;;;;;;0.00;0.00;;;;;;;;;;5014448;28;20046;-68
2022/06/24 01:56:54;;;;;;;0.00;0.00;;;;;;;;;;5013366;28;20046;-68
2022/06/24 01:59:22;;;;;;;0.00;0.00;;;;;;;;;;5011515;28;20066;-69
2022/06/24 02:01:51;;;;;;;0.00;0.00;;;;;;;;;;5012012;28;20050;-68
2022/06/24 02:04:19;;;;;;;0.00;0.00;;;;;;;;;;5007601;28;20042;-68
2022/06/24 02:06:47;;;;;;;0.00;0.00;;;;;;;;;;5013399;28;20054;-68
2022/06/24 02:09:16;;;;;;;0.00;0.00;;;;;;;;;;5013055;28;20101;-67
2022/06/24 02:14:33;;;;;;;0.00;0.00;;;;;;;;;;5011375;28;20049;-68
2022/06/24 02:17:01;;;;;;;0.00;0.00;;;;;;;;;;5013013;28;20129;-68
2022/06/24 02:19:30;;;;;;;0.00;0.00;;;;;;;;;;5011760;28;20050;-68
2022/06/24 02:21:58;;;;;;;0.00;0.00;;;;;;;;;;5010473;28;20050;-68
2022/06/24 02:24:26;;;;;;;0.00;0.00;;;;;;;;;;5010772;28;20132;-68
2022/06/24 02:26:55;;;;;;;0.00;0.00;;;;;;;;;;5015973;28;20128;-68
2022/06/24 02:29:23;;;;;;;0.00;0.00;;;;;;;;;;5012853;28;20086;-68
2022/06/24 02:31:53;;;;;;;0.00;0.00;;;;;;;;;;5009921;28;20125;-68
2022/06/24 02:34:21;;;;;;;0.00;0.00;;;;;;;;;;5007424;28;20136;-68
2022/06/24 02:36:49;;;;;;;0.00;0.00;;;;;;;;;;5017521;28;20559;-68
2022/06/24 02:39:18;;;;;;;2.53;0.98;;;;;;;;;;5013410;28;20106;-69
2022/06/24 02:41:46;;;;;;;0.40;0.10;;;;;;;;;;5001551;28;20133;-69
2022/06/24 02:44:14;;;;;;;0.00;0.00;;;;;;;;;;5014009;28;20046;-69
2022/06/24 02:46:43;;;;;;;0.00;0.00;;;;;;;;;;5008654;28;20079;-69
2022/06/24 02:49:12;;;;;;;0.00;0.00;;;;;;;;;;5004605;28;20056;-69
2022/06/24 02:51:41;;;;;;;0.00;0.00;;;;;;;;;;5011366;28;20113;-68
2022/06/24 02:54:10;;;;;;;0.82;0.35;;;;;;;;;;5013842;28;20096;-69
2022/06/24 02:56:39;;;;;;;0.00;0.00;;;;;;;;;;5013566;28;20081;-69
2022/06/24 02:59:12;;;;;;;0.00;0.00;;;;;;;;;;4995362;28;20088;-69
2022/06/24 03:01:40;;;;;;;0.00;0.00;;;;;;;;;;5010925;28;20081;-69
2022/06/24 03:04:09;;;;;;;0.00;0.00;;;;;;;;;;5007865;28;20050;-69
2022/06/24 03:06:39;;;;;;;0.00;0.00;;;;;;;;;;5009201;28;20046;-69
2022/06/24 03:09:07;;;;;;;0.00;0.00;;;;;;;;;;5012187;28;20116;-69
2022/06/24 03:11:35;;;;;;;0.00;0.00;;;;;;;;;;5007688;28;20081;-69
2022/06/24 03:14:04;;;;;;;0.00;0.00;;;;;;;;;;5009396;28;20096;-69
2022/06/24 03:16:32;;;;;;;0.28;0.28;;;;;;;;;;5011613;28;20045;-69
2022/06/24 03:19:01;;;;;;;0.10;0.10;;;;;;;;;;5012777;28;20050;-69
2022/06/24 03:21:29;;;;;;;0.10;0.10;;;;;;;;;;5009211;28;20137;-69
2022/06/24 03:23:59;;;;;;;0.00;0.00;;;;;;;;;;5012659;28;20132;-69
2022/06/24 03:26:27;;;;;;;0.00;0.00;;;;;;;;;;5014584;28;20057;-69
2022/06/24 03:28:55;;;;;;;0.88;0.13;;;;;;;;;;5012454;28;20501;-69
2022/06/24 03:31:24;;;;;;;0.00;0.00;;;;;;;;;;5005509;28;20216;-69
2022/06/24 03:33:53;;;;;;;0.00;0.00;;;;;;;;;;5010320;28;20077;-69
2022/06/24 03:36:21;;;;;;;0.00;0.00;;;;;;;;;;5008397;28;20133;-69
2022/06/24 03:38:50;;;;;;;0.00;0.00;;;;;;;;;;5009532;28;20503;-69
2022/06/24 03:41:22;;;;;;;0.00;0.00;;;;;;;;;;5010778;28;20136;-69
2022/06/24 03:43:51;;;;;;;0.00;0.00;;;;;;;;;;5010301;28;20050;-69
2022/06/24 03:46:22;;;;;;;0.00;0.00;;;;;;;;;;5011398;28;20119;-69
2022/06/24 03:48:50;;;;;;;0.00;0.00;;;;;;;;;;5008942;28;20064;-69
2022/06/24 03:51:25;;;;;;;0.65;0.47;;;;;;;;;;5010591;28;20134;-69
2022/06/24 03:53:53;;;;;;;0.00;0.00;;;;;;;;;;5006770;28;20053;-69
2022/06/24 03:56:23;;;;;;;0.00;0.00;;;;;;;;;;5012345;28;20124;-69
2022/06/24 03:58:51;;;;;;;0.00;0.00;;;;;;;;;;5008264;28;20069;-69
2022/06/24 04:01:22;;;;;;;0.00;0.00;;;;;;;;;;5009827;28;20073;-69
2022/06/24 04:03:51;;;;;;;0.00;0.00;;;;;;;;;;5013289;28;20496;-69
2022/06/24 04:06:19;;;;;;;0.00;0.00;;;;;;;;;;5007123;28;20108;-69
2022/06/24 04:08:48;;;;;;;0.10;0.10;;;;;;;;;;5005655;28;20049;-69
2022/06/24 04:11:19;;;;;;;0.00;0.00;;;;;;;;;;5009257;28;20085;-69
2022/06/24 04:13:49;;;;;;;0.30;0.30;;;;;;;;;;5008662;28;20053;-69
2022/06/24 04:16:27;;;;;;;0.00;0.00;;;;;;;;;;5012094;28;20056;-69
2022/06/24 04:18:55;;;;;;;0.00;0.00;;;;;;;;;;5005971;28;20074;-69
2022/06/24 04:21:23;;;;;;;0.00;0.00;;;;;;;;;;5007921;28;20088;-69
2022/06/24 04:23:52;;;;;;;0.00;0.00;;;;;;;;;;5010850;28;20123;-69
2022/06/24 04:26:23;;;;;;;0.00;0.00;;;;;;;;;;5011651;28;20084;-69
2022/06/24 04:28:53;;;;;;;0.22;0.22;;;;;;;;;;5009285;28;20136;-69
2022/06/24 04:31:21;;;;;;;0.00;0.00;;;;;;;;;;5007151;28;20742;-69
2022/06/24 04:33:50;;;;;;;0.00;0.00;;;;;;;;;;5006618;28;20074;-69
2022/06/24 04:36:18;;;;;;;0.00;0.00;;;;;;;;;;5002685;28;20081;-69
2022/06/24 04:38:46;;;;;;;0.00;0.00;;;;;;;;;;5009037;28;20044;-69
2022/06/24 04:41:16;;;;;;;0.00;0.00;;;;;;;;;;5003319;28;20096;-69
2022/06/24 04:43:45;;;;;;;0.00;0.00;;;;;;;;;;4949655;28;20042;-69
2022/06/24 04:46:24;;;;;;;0.00;0.00;;;;;;;;;;5003845;28;20050;-69
2022/06/24 04:48:53;;;;;;;0.00;0.00;;;;;;;;;;4999505;28;20465;-69
2022/06/24 04:51:22;;;;;;;0.05;0.05;;;;;;;;;;5005368;28;20133;-69
2022/06/24 04:53:50;;;;;;;0.00;0.00;;;;;;;;;;5006746;28;20085;-69
2022/06/24 04:56:19;;;;;;;0.00;0.00;;;;;;;;;;5008115;28;20088;-70
2022/06/24 04:58:48;;;;;;;0.00;0.00;;;;;;;;;;5007960;28;20095;-69
2022/06/24 05:01:19;;;;;;;0.47;0.22;;;;;;;;;;5023655;28;20054;-69
2022/06/24 05:03:49;;;;;;;0.08;0.08;;;;;;;;;;4999053;28;20491;-69
2022/06/24 05:06:21;;;;;;;0.30;0.30;;;;;;;;;;5003091;28;20056;-69
2022/06/24 05:08:49;;;;;;;0.00;0.00;;;;;;;;;;5010312;28;20073;-69
2022/06/24 05:11:17;;;;;;;0.00;0.00;;;;;;;;;;5011954;28;20049;-69
2022/06/24 05:13:46;;;;;;;0.20;0.20;;;;;;;;;;5010287;28;20559;-69
2022/06/24 05:16:20;;;;;;;0.03;0.03;;;;;;;;;;5011344;28;20492;-69
2022/06/24 05:19:07;;;;;;;0.00;0.00;;;;;;;;;;5014022;28;20050;-69
2022/06/24 05:21:36;;;;;;;0.00;0.00;;;;;;;;;;5015975;28;20077;-69
2022/06/24 05:24:04;;;;;;;0.40;0.40;;;;;;;;;;5015149;28;20053;-69
2022/06/24 05:26:33;;;;;;;0.32;0.32;;;;;;;;;;5014946;28;20045;-69
2022/06/24 05:29:02;;;;;;;0.20;0.20;;;;;;;;;;5016218;28;20080;-69
2022/06/24 05:31:44;;;;;;;0.00;0.00;;;;;;;;;;5011819;28;20050;-69
2022/06/24 05:34:14;;;;;;;0.25;0.20;;;;;;;;;;5020542;28;20116;-69
2022/06/24 05:39:57;;;;;;;0.28;0.10;;;;;;;;;;5016531;28;20072;-69
2022/06/24 05:42:25;;;;;;;0.00;0.00;;;;;;;;;;5013597;28;20042;-69
2022/06/24 05:44:54;;;;;;;0.00;0.00;;;;;;;;;;5016429;28;20100;-69
2022/06/24 05:47:22;;;;;;;0.00;0.00;;;;;;;;;;5012592;28;20129;-69
2022/06/24 05:49:52;;;;;;;0.20;0.20;;;;;;;;;;5012228;28;20473;-69
2022/06/24 05:55:02;;;;;;;0.00;0.00;;;;;;;;;;5011208;28;20077;-69
2022/06/24 05:55:08;;;;;;;0.30;0.20;;;;;;;;;;5012193;28;20202;-69
2022/06/24 05:57:37;;;;;;;0.00;0.00;;;;;;;;;;5008782;28;20069;-69
2022/06/24 06:00:06;;;;;;;0.10;0.10;;;;;;;;;;5010141;28;20143;-69
2022/06/24 06:02:36;;;;;;;0.00;0.00;;;;;;;;;;5011474;28;20083;-69
2022/06/24 06:05:09;;;;;;;0.00;0.00;;;;;;;;;;5012808;28;20081;-69
2022/06/24 06:07:37;;;;;;;0.17;0.17;;;;;;;;;;4995204;28;20050;-69
2022/06/24 06:10:06;;;;;;;0.20;0.08;;;;;;;;;;5011120;28;20504;-69
2022/06/24 06:12:35;;;;;;;0.55;0.55;;;;;;;;;;5016751;28;20093;-69
2022/06/24 06:15:04;;;;;;;0.00;0.00;;;;;;;;;;5008831;28;20053;-69
2022/06/24 06:17:33;;;;;;;0.70;0.63;;;;;;;;;;5011174;28;20662;-69
2022/06/24 06:20:02;;;;;;;0.00;0.00;;;;;;;;;;5009123;28;20085;-69
2022/06/24 06:22:31;;;;;;;0.00;0.00;;;;;;;;;;5012739;28;20089;-69
2022/06/24 06:25:01;;;;;;;0.00;0.00;;;;;;;;;;5008228;28;20058;-69
2022/06/24 06:27:29;;;;;;;0.00;0.00;;;;;;;;;;5005542;28;20480;-69
2022/06/24 06:29:59;;;;;;;0.00;0.00;;;;;;;;;;4990699;28;20070;-69
2022/06/24 06:32:27;;;;;;;0.00;0.00;;;;;;;;;;5002234;28;20497;-69
2022/06/24 06:35:01;;;;;;;0.93;0.75;;;;;;;;;;5008833;28;20430;-69
2022/06/24 06:37:29;;;;;;;0.00;0.00;;;;;;;;;;5012427;28;20049;-69
2022/06/24 06:39:59;;;;;;;0.00;0.00;;;;;;;;;;5007640;28;20082;-69
2022/06/24 06:42:28;;;;;;;0.00;0.00;;;;;;;;;;5001525;28;20155;-69
2022/06/24 06:44:57;;;;;;;0.10;0.10;;;;;;;;;;5005636;28;20104;-69
2022/06/24 06:47:26;;;;;;;0.00;0.00;;;;;;;;;;5007634;28;20077;-69
2022/06/24 06:49:54;;;;;;;0.00;0.00;;;;;;;;;;5006015;28;20057;-69
2022/06/24 06:52:22;;;;;;;0.03;0.03;;;;;;;;;;5008945;28;20128;-70
2022/06/24 06:54:51;;;;;;;0.20;0.20;;;;;;;;;;5002630;28;20140;-70
2022/06/24 06:57:21;;;;;;;0.00;0.00;;;;;;;;;;4998889;28;20053;-70
2022/06/24 06:59:51;;;;;;;0.10;0.10;;;;;;;;;;4997313;28;20490;-70
2022/06/24 07:02:19;;;;;;;0.10;0.10;;;;;;;;;;5011851;28;20045;-70
2022/06/24 07:04:48;;;;;;;0.00;0.00;;;;;;;;;;5011542;28;20065;-69
2022/06/24 07:07:17;;;;;;;0.00;0.00;;;;;;;;;;5009640;28;20042;-70
2022/06/24 07:09:46;;;;;;;0.35;0.35;;;;;;;;;;4993604;28;20127;-70
2022/06/24 07:12:15;;;;;;;0.00;0.00;;;;;;;;;;5010821;28;20068;-70
2022/06/24 07:14:45;;;;;;;0.10;0.10;;;;;;;;;;5008910;28;20042;-70
2022/06/24 07:17:15;;;;;;;0.00;0.00;;;;;;;;;;5007496;28;20049;-70
2022/06/24 07:19:44;;;;;;;0.00;0.00;;;;;;;;;;5007233;28;20054;-70
2022/06/24 07:22:13;;;;;;;0.00;0.00;;;;;;;;;;5010284;28;20038;-70
2022/06/24 07:24:44;;;;;;;0.10;0.10;;;;;;;;;;5005182;28;20057;-70
2022/06/24 07:27:16;;;;;;;0.00;0.00;;;;;;;;;;5010671;28;20061;-70
2022/06/24 07:29:46;;;;;;;0.00;0.00;;;;;;;;;;5008409;28;20481;-69
2022/06/24 07:32:15;;;;;;;0.20;0.10;;;;;;;;;;5012891;28;20050;-70
2022/06/24 07:34:44;;;;;;;0.00;0.00;;;;;;;;;;5011232;28;20050;-70
2022/06/24 07:37:13;;;;;;;0.15;0.15;;;;;;;;;;5011320;28;20050;-70
2022/06/24 07:39:43;;;;;;;0.10;0.10;;;;;;;;;;5007888;28;20062;-70
2022/06/24 07:42:12;;;;;;;5.82;0.10;;;;;;;;;;5005591;28;20441;-70
2022/06/24 07:44:43;;;;;;;0.00;0.00;;;;;;;;;;5010499;28;20440;-70
2022/06/24 07:47:13;;;;;;;0.10;0.10;;;;;;;;;;5009854;28;20049;-70
2022/06/24 07:49:41;;;;;;;0.32;0.32;;;;;;;;;;5013496;28;20481;-69
2022/06/24 07:52:10;;;;;;;0.43;0.35;;;;;;;;;;5007633;28;20049;-69
2022/06/24 07:54:39;;;;;;;0.00;0.00;;;;;;;;;;4992854;28;20085;-70
2022/06/24 07:57:06;;;;;;;0.20;0.05;;;;;;;;;;5008939;28;20042;-69
2022/06/24 07:59:37;;;;;;;0.35;0.35;;;;;;;;;;5006907;28;20060;-69
2022/06/24 08:02:07;;;;;;;0.35;0.35;;;;;;;;;;5009036;28;20117;-69
2022/06/24 08:04:37;;;;;;;3.75;1.33;;;;;;;;;;5009804;28;20045;-69
2022/06/24 08:07:06;;;;;;;0.00;0.00;;;;;;;;;;5016108;28;20045;-69
2022/06/24 08:09:36;;;;;;;0.00;0.00;;;;;;;;;;5008448;28;20121;-69
2022/06/24 08:12:05;;;;;;;0.00;0.00;;;;;;;;;;5001881;28;20116;-69
2022/06/24 08:14:34;;;;;;;0.60;0.60;;;;;;;;;;5006281;28;20094;-69
2022/06/24 08:17:03;;;;;;;0.00;0.00;;;;;;;;;;5007819;28;20466;-69
2022/06/24 08:19:31;;;;;;;2.45;1.17;;;;;;;;;;5002341;28;20165;-70
2022/06/24 08:22:05;;;;;;;0.00;0.00;;;;;;;;;;5011197;28;20490;-69
2022/06/24 08:24:34;;;;;;;0.63;0.60;;;;;;;;;;5004713;28;20073;-69
2022/06/24 08:27:03;;;;;;;0.00;0.00;;;;;;;;;;5005283;28;20042;-69
2022/06/24 08:29:31;;;;;;;0.00;0.00;;;;;;;;;;5001707;28;20042;-69
2022/06/24 08:32:00;;;;;;;0.10;0.10;;;;;;;;;;5006876;28;20058;-69
2022/06/24 08:34:29;;;;;;;0.00;0.00;;;;;;;;;;5006345;28;20100;-69
2022/06/24 08:36:58;;;;;;;0.00;0.00;;;;;;;;;;5007672;28;20546;-69
2022/06/24 08:39:28;;;;;;;0.20;0.20;;;;;;;;;;5003818;28;20085;-69
2022/06/24 08:42:05;;;;;;;0.57;0.15;;;;;;;;;;5003273;28;20042;-69
2022/06/24 08:44:34;;;;;;;0.00;0.00;;;;;;;;;;5007505;28;20048;-69
2022/06/24 08:47:03;;;;;;;0.00;0.00;;;;;;;;;;5004435;28;20057;-69
2022/06/24 08:52:56;;;;;;;0.00;0.00;;;;;;;;;;4991518;28;20492;-69
2022/06/24 08:55:27;;;;;;;0.00;0.00;;;;;;;;;;5007775;28;20047;-69
2022/06/24 08:57:56;;;;;;;0.05;0.05;;;;;;;;;;5002389;28;20038;-69
2022/06/24 09:00:24;;;;;;;0.00;0.00;;;;;;;;;;5005304;28;20092;-69
2022/06/24 09:02:53;;;;;;;0.10;0.10;;;;;;;;;;5009666;28;20100;-69
2022/06/24 09:05:21;;;;;;;0.00;0.00;;;;;;;;;;5007938;28;20611;-69
2022/06/24 09:07:50;;;;;;;0.30;0.10;;;;;;;;;;5003223;28;20046;-69
2022/06/24 09:10:18;;;;;;;0.13;0.10;;;;;;;;;;5007571;28;20461;-69
2022/06/24 09:12:49;;;;;;;0.20;0.05;;;;;;;;;;5007951;28;20131;-69
2022/06/24 09:15:18;;;;;;;0.00;0.00;;;;;;;;;;5006709;28;20115;-69
2022/06/24 09:17:46;;;;;;;0.00;0.00;;;;;;;;;;4997879;28;20332;-69
2022/06/24 09:20:16;;;;;;;0.10;0.10;;;;;;;;;;5008475;28;20046;-69
2022/06/24 09:23:05;;;;;;;0.47;0.10;;;;;;;;;;5007254;28;20060;-69
2022/06/24 09:25:44;;;;;;;0.10;0.10;;;;;;;;;;5000645;28;20405;-69
2022/06/24 09:28:21;;;;;;;0.00;0.00;;;;;;;;;;5003956;28;20074;-69
2022/06/24 09:30:49;;;;;;;0.70;0.45;;;;;;;;;;5003371;28;20050;-70
2022/06/24 09:33:19;;;;;;;0.00;0.00;;;;;;;;;;5001482;28;20046;-70
2022/06/24 09:36:06;;;;;;;0.00;0.00;;;;;;;;;;5009644;28;20099;-70
2022/06/24 09:38:53;;;;;;;0.47;0.43;;;;;;;;;;5002402;28;20081;-70
2022/06/24 09:41:21;;;;;;;0.00;0.00;;;;;;;;;;5003142;28;20081;-71
2022/06/24 09:43:51;;;;;;;0.00;0.00;;;;;;;;;;5006751;28;20136;-70
2022/06/24 09:46:21;;;;;;;0.15;0.10;;;;;;;;;;4998115;28;20038;-70
2022/06/24 09:48:53;;;;;;;0.00;0.00;;;;;;;;;;4999418;28;20467;-70
2022/06/24 09:51:22;;;;;;;0.00;0.00;;;;;;;;;;4995023;28;20364;-70
2022/06/24 09:53:51;;;;;;;0.10;0.10;;;;;;;;;;4994549;28;20073;-70
2022/06/24 09:56:21;;;;;;;0.17;0.17;;;;;;;;;;5005218;28;20081;-70
2022/06/24 10:01:35;;;;;;;0.05;0.05;;;;;;;;;;5003244;28;20413;-69
2022/06/24 10:04:05;;;;;;;0.10;0.10;;;;;;;;;;5006517;28;20049;-70
2022/06/24 10:06:36;;;;;;;0.08;0.08;;;;;;;;;;5007529;28;20045;-70
2022/06/24 10:09:06;;;;;;;0.05;0.05;;;;;;;;;;5008394;28;20042;-71
2022/06/24 10:11:38;;;;;;;0.00;0.00;;;;;;;;;;5003196;28;20149;-71
2022/06/24 10:14:08;;;;;;;0.20;0.20;;;;;;;;;;5008356;28;20054;-71
2022/06/24 10:16:38;;;;;;;0.00;0.00;;;;;;;;;;5004584;28;20050;-71
2022/06/24 10:19:06;;;;;;;0.68;0.40;;;;;;;;;;4999398;28;20402;-71
2022/06/24 10:21:36;;;;;;;0.20;0.13;;;;;;;;;;5006835;28;20180;-71
2022/06/24 10:24:12;;;;;;;0.65;0.43;;;;;;;;;;5000994;28;20077;-70
2022/06/24 10:26:41;;;;;;;0.03;0.00;;;;;;;;;;4998905;28;20058;-71
2022/06/24 10:29:24;;;;;;;2.05;0.82;;;;;;;;;;5003927;28;20310;-71
2022/06/24 10:32:07;;;;;;;0.00;0.00;;;;;;;;;;5009924;28;20085;-70
2022/06/24 10:34:43;;;;;;;0.57;0.20;;;;;;;;;;4997685;28;20100;-70
2022/06/24 10:37:27;;;;;;;0.00;0.00;;;;;;;;;;5008036;28;20152;-70
2022/06/24 10:39:57;;;;;;;0.15;0.10;;;;;;;;;;5004475;28;20041;-71
2022/06/24 10:42:26;;;;;;;0.00;0.00;;;;;;;;;;5003953;28;20446;-71
2022/06/24 10:44:56;;;;;;;0.40;0.15;;;;;;;;;;5004063;28;20493;-70
2022/06/24 10:47:30;;;;;;;0.10;0.10;;;;;;;;;;5006023;28;20046;-71
2022/06/24 10:50:11;;;;;;;0.10;0.10;;;;;;;;;;5008546;28;20144;-70
2022/06/24 10:52:45;;;;;;;0.20;0.20;;;;;;;;;;5005541;28;20521;-70
2022/06/24 10:55:29;;;;;;;0.10;0.10;;;;;;;;;;5005399;28;20066;-71
2022/06/24 10:57:59;;;;;;;0.00;0.00;;;;;;;;;;5008284;28;20058;-70
2022/06/24 11:00:28;;;;;;;0.00;0.00;;;;;;;;;;5004916;28;20597;-71
2022/06/24 11:03:01;;;;;;;0.52;0.52;;;;;;;;;;5001816;28;20049;-71
2022/06/24 11:05:32;;;;;;;0.00;0.00;;;;;;;;;;4997169;28;20085;-71
2022/06/24 11:08:01;;;;;;;0.30;0.30;;;;;;;;;;5004270;28;20053;-71
2022/06/24 11:10:32;;;;;;;0.10;0.10;;;;;;;;;;5001275;28;20045;-71
2022/06/24 11:13:02;;;;;;;0.00;0.00;;;;;;;;;;4999573;28;20065;-72
2022/06/24 11:15:40;;;;;;;0.00;0.00;;;;;;;;;;5008715;28;20065;-73
2022/06/24 11:18:14;;;;;;;0.00;0.00;;;;;;;;;;4992271;28;20133;-73
2022/06/24 11:20:44;;;;;;;0.03;0.00;;;;;;;;;;4995205;28;20077;-73
2022/06/24 11:23:13;;;;;;;0.00;0.00;;;;;;;;;;4999441;28;20052;-73
2022/06/24 11:25:46;;;;;;;0.00;0.00;;;;;;;;;;4994493;28;20064;-73
2022/06/24 11:28:18;;;;;;;0.20;0.20;;;;;;;;;;4997472;28;20054;-73
2022/06/24 11:30:47;;;;;;;0.00;0.00;;;;;;;;;;4997942;28;20069;-73
2022/06/24 11:33:17;;;;;;;1.23;0.73;;;;;;;;;;4994593;28;20159;-72
2022/06/24 11:35:47;;;;;;;0.03;0.03;;;;;;;;;;4992427;28;20441;-73
2022/06/24 11:38:22;;;;;;;0.15;0.15;;;;;;;;;;4988486;28;20074;-73
2022/06/24 11:40:51;;;;;;;0.00;0.00;;;;;;;;;;5000564;28;20052;-74
2022/06/24 11:43:20;;;;;;;0.00;0.00;;;;;;;;;;4988986;28;20046;-73
2022/06/24 11:45:49;;;;;;;0.80;0.52;;;;;;;;;;4985285;28;20510;-70
2022/06/24 11:48:24;;;;;;;0.20;0.15;;;;;;;;;;4993865;28;20550;-70
2022/06/24 11:50:52;;;;;;;0.00;0.00;;;;;;;;;;4993423;28;20050;-71
2022/06/24 11:53:24;;;;;;;0.10;0.10;;;;;;;;;;4993169;28;20441;-70
2022/06/24 11:55:55;;;;;;;0.00;0.00;;;;;;;;;;4991142;28;20124;-71
2022/06/24 11:58:24;;;;;;;0.00;0.00;;;;;;;;;;4993401;28;20042;-71
2022/06/24 12:00:53;;;;;;;0.00;0.00;;;;;;;;;;4992218;28;20046;-69
2022/06/24 12:03:24;;;;;;;0.00;0.00;;;;;;;;;;5004386;28;20045;-69
2022/06/24 12:05:53;;;;;;;0.65;0.15;;;;;;;;;;5002758;28;20037;-70
2022/06/24 12:08:24;;;;;;;0.05;0.05;;;;;;;;;;5007164;28;20053;-69
2022/06/24 12:10:54;;;;;;;0.30;0.10;;;;;;;;;;5007347;28;20053;-70
2022/06/24 12:13:26;;;;;;;0.00;0.00;;;;;;;;;;4998546;28;20141;-70
2022/06/24 12:15:55;;;;;;;0.00;0.00;;;;;;;;;;5004329;28;20062;-70
2022/06/24 12:18:26;;;;;;;1.00;0.70;;;;;;;;;;5004551;28;20085;-70
2022/06/24 12:20:59;;;;;;;0.57;0.00;;;;;;;;;;5007646;28;20563;-70
2022/06/24 12:23:36;;;;;;;0.00;0.00;;;;;;;;;;5014296;28;20156;-69
2022/06/24 12:26:07;;;;;;;0.00;0.00;;;;;;;;;;5009132;28;20061;-70
2022/06/24 12:28:36;;;;;;;0.63;0.52;;;;;;;;;;4998360;28;20517;-70
2022/06/24 12:31:09;;;;;;;0.10;0.10;;;;;;;;;;5005669;28;20041;-70
2022/06/24 12:33:51;;;;;;;0.57;0.10;;;;;;;;;;4999256;28;20509;-70
2022/06/24 12:36:20;;;;;;;0.00;0.00;;;;;;;;;;5007692;28;20057;-69
2022/06/24 12:39:02;;;;;;;0.00;0.00;;;;;;;;;;5003263;28;20053;-70
2022/06/24 12:41:30;;;;;;;0.00;0.00;;;;;;;;;;5001792;28;20054;-70
2022/06/24 12:44:00;;;;;;;0.47;0.10;;;;;;;;;;5007299;28;20141;-69
2022/06/24 12:46:30;;;;;;;0.00;0.00;;;;;;;;;;5002692;28;20405;-70
2022/06/24 12:51:47;;;;;;;0.10;0.10;;;;;;;;;;4941169;28;20055;-69
2022/06/24 12:54:17;;;;;;;0.10;0.10;;;;;;;;;;4944516;28;20059;-70
2022/06/24 12:57:06;;;;;;;0.17;0.17;;;;;;;;;;4938018;28;20066;-70
2022/06/24 12:59:35;;;;;;;0.80;0.80;;;;;;;;;;4949479;29;20090;-70
2022/06/24 13:02:10;;;;;;;0.00;0.00;;;;;;;;;;4951650;28;20042;-69
2022/06/24 13:04:40;;;;;;;1.85;0.50;;;;;;;;;;4945187;29;21265;-70
2022/06/24 13:07:09;;;;;;;0.57;0.55;;;;;;;;;;4933761;29;20051;-70
2022/06/24 13:09:38;;;;;;;0.00;0.00;;;;;;;;;;4948121;28;20162;-70
2022/06/24 13:12:07;;;;;;;0.15;0.10;;;;;;;;;;4949728;28;20051;-70
2022/06/24 13:14:36;;;;;;;0.10;0.10;;;;;;;;;;4994886;28;20062;-70
2022/06/24 13:17:05;;;;;;;0.00;0.00;;;;;;;;;;5004287;28;20448;-70
2022/06/24 13:19:34;;;;;;;0.15;0.15;;;;;;;;;;5005101;28;20046;-69
2022/06/24 13:22:05;;;;;;;0.10;0.10;;;;;;;;;;5000502;28;20160;-70
2022/06/24 13:24:35;;;;;;;0.20;0.20;;;;;;;;;;4995941;28;20038;-70
2022/06/24 13:27:05;;;;;;;0.00;0.00;;;;;;;;;;4991066;28;20254;-70
2022/06/24 13:29:34;;;;;;;0.95;0.55;;;;;;;;;;4998079;28;20133;-70
2022/06/24 13:32:03;;;;;;;0.00;0.00;;;;;;;;;;4996786;28;20054;-70
2022/06/24 13:34:32;;;;;;;0.00;0.00;;;;;;;;;;5002529;28;20559;-69
2022/06/24 13:37:01;;;;;;;0.50;0.50;;;;;;;;;;4995460;28;20052;-70
2022/06/24 13:39:31;;;;;;;0.25;0.25;;;;;;;;;;4996582;28;20046;-70
2022/06/24 13:42:00;;;;;;;0.38;0.22;;;;;;;;;;4991523;28;20568;-70
2022/06/24 13:44:29;;;;;;;0.00;0.00;;;;;;;;;;4994498;28;20046;-69
2022/06/24 13:46:58;;;;;;;0.00;0.00;;;;;;;;;;4995627;28;20740;-70
2022/06/24 13:49:26;;;;;;;0.15;0.10;;;;;;;;;;5000006;28;20045;-70
2022/06/24 13:51:59;;;;;;;0.30;0.10;;;;;;;;;;4998674;28;20078;-68
2022/06/24 13:54:28;;;;;;;0.10;0.05;;;;;;;;;;4996411;28;20089;-68
2022/06/24 13:56:58;;;;;;;0.30;0.30;;;;;;;;;;4995645;28;20051;-70
2022/06/24 13:59:27;;;;;;;0.15;0.15;;;;;;;;;;5000640;28;20352;-70
2022/06/24 14:01:56;;;;;;;0.28;0.28;;;;;;;;;;4995541;28;20046;-70
2022/06/24 14:04:45;;;;;;;0.45;0.43;;;;;;;;;;4996844;28;20058;-70
2022/06/24 14:07:13;;;;;;;0.00;0.00;;;;;;;;;;5003882;28;20046;-71
2022/06/24 14:09:42;;;;;;;0.10;0.10;;;;;;;;;;4996705;28;20112;-70
2022/06/24 14:12:20;;;;;;;0.45;0.30;;;;;;;;;;4999027;28;20065;-70
2022/06/24 14:14:48;;;;;;;0.00;0.00;;;;;;;;;;4998272;28;20425;-70
2022/06/24 14:17:17;;;;;;;0.20;0.20;;;;;;;;;;4994706;28;20465;-70
2022/06/24 14:20:03;;;;;;;0.10;0.10;;;;;;;;;;4999721;28;20092;-70
2022/06/24 14:22:32;;;;;;;0.03;0.03;;;;;;;;;;5007345;28;20046;-70
2022/06/24 14:24:59;;;;;;;0.00;0.00;;;;;;;;;;4995713;28;20192;-68
2022/06/24 14:27:30;;;;;;;0.00;0.00;;;;;;;;;;5001422;28;20062;-68
2022/06/24 14:29:59;;;;;;;0.00;0.00;;;;;;;;;;4999688;28;20100;-70
2022/06/24 14:32:28;;;;;;;0.00;0.00;;;;;;;;;;4995746;28;20155;-70
2022/06/24 14:34:56;;;;;;;0.00;0.00;;;;;;;;;;4996940;28;20152;-70
2022/06/24 14:40:12;;;;;;;0.00;0.00;;;;;;;;;;4999664;28;20073;-70
2022/06/24 14:43:02;;;;;;;0.00;0.00;;;;;;;;;;5000317;28;21246;-70
2022/06/24 14:45:31;;;;;;;0.00;0.00;;;;;;;;;;5000724;28;20104;-70
2022/06/24 14:48:00;;;;;;;0.00;0.00;;;;;;;;;;4999116;28;20136;-67
2022/06/24 14:50:29;;;;;;;0.00;0.00;;;;;;;;;;4996811;28;20380;-69
2022/06/24 14:52:58;;;;;;;0.03;0.03;;;;;;;;;;4997670;28;20057;-68
2022/06/24 14:55:27;;;;;;;0.00;0.00;;;;;;;;;;5001621;28;20175;-69
2022/06/24 14:57:56;;;;;;;0.05;0.05;;;;;;;;;;4994950;28;20050;-69
2022/06/24 15:00:26;;;;;;;0.10;0.10;;;;;;;;;;5010842;28;20054;-69
2022/06/24 15:02:56;;;;;;;0.00;0.00;;;;;;;;;;5012691;28;20132;-69
2022/06/24 15:05:25;;;;;;;0.35;0.35;;;;;;;;;;5004640;28;20042;-69
2022/06/24 15:07:53;;;;;;;0.08;0.08;;;;;;;;;;5007430;28;20073;-69
2022/06/24 15:10:22;;;;;;;0.25;0.25;;;;;;;;;;5003286;28;20095;-69
2022/06/24 15:12:50;;;;;;;0.00;0.00;;;;;;;;;;5013873;28;20054;-69
2022/06/24 15:15:19;;;;;;;0.15;0.15;;;;;;;;;;5011936;28;20049;-69
2022/06/24 15:17:49;;;;;;;0.22;0.22;;;;;;;;;;5010591;28;20077;-70
2022/06/24 15:20:17;;;;;;;0.65;0.47;;;;;;;;;;5000988;28;20157;-70